Here is the Quick Look data you requested

The Data originates at the National Weather Service, and is made available here by the UAlbany Department of Atmospheric and Environmental Sciences

Surface Observations

PAAQ 231753Z 25004KT 10SM SCT013 OVC031 11/08 A3011 RMK AO2 SLP196 60000
 T01060078 10106 20094 58005=
PABA 231752Z 31003KT 10SM RA SCT003 BKN017 OVC046 02/01 A3002 RMK AO2 SLP151
 P0002 60003 T00170006 10017 20006 53012 FZRANO=
PABE 231753Z 00000KT 10SM OVC050 10/05 A3014 RMK AO2 SLP207 T01000050 10106
 20072 50003=
PABI 231753Z 32006KT 10SM FEW024 SCT033 BKN047 BKN130 13/09 A3007 RMK AO2
 SLP185 T01330089 10139 20111 58006 $=
PABR 231753Z 09005KT 10SM CLR 03/M01 A3002 RMK AO2 SLP167 T00281011 10028 21011
 53002 $=
PABT 231753Z 23008G16KT 10SM SCT022 SCT120 BKN200 14/09 A2993 RMK AO2 SLP142
 T01440089 10150 20117 51004=
PABV 231756Z AUTO VRB03KT 10SM BKN016 OVC032 11/07 A3013 RMK AO2 SLP210 60000
 T01060072 10111 20094 58005 $=
PACD 231753Z 15014KT 10SM OVC037 09/06 A3009 RMK AO2 SLP188 T00890056 10089
 20061 50001=
PACV 231753Z 00000KT 10SM SCT010 BKN018 OVC060 11/08 A3010 RMK AO2 SLP191
 T01110083 10111 20072 58008=
PACZ 231755Z AUTO 18009KT 10SM -SHRA BKN012 07/06 A3007 RMK AO2
 RAB1718E1739SHRAB1739 SLP187 P0001 60002 T00710058 10076 20065 52006=
PADE 231753Z AUTO 27009KT 10SM BKN050 12/07 A3005 RMK AO2 SLP177 T01170067
 10122 20044 50007 TSNO $=
PADK 231756Z AUTO 19004KT 10SM OVC010 07/05 A2998 RMK AO2 CIG 007V013 SLP151
 T00670050 10067 20056 58014=
PADQ 231753Z 10003KT 10SM FEW018 SCT050 10/05 A3011 RMK AO2 SLP198 T01000050
 10100 20083 58003 $=
PADU 231756Z 00000KT 10SM SCT020 OVC026 08/06 A3006 RMK AO2 SLP184 T00780056
 10083 20067 53005=
PAED 231756Z AUTO 21007KT 10SM BKN035 OVC045 11/07 A3011 RMK AO2 SLP192
 T01140073 10114 20100 58004=
PAEG 231753Z AUTO 04005KT 10SM FEW042 BKN070 18/09 A2996 RMK AO2 SLP146
 T01780094 10189 20078 58007 TSNO=
PAEH 231755Z AUTO 32004KT 10SM OVC060 10/04 A3013 RMK AO2 SLP207 T00960043
 10097 20075 52002=
PAEI 231756Z AUTO 24005KT 10SM BKN060 16/09 A3003 RMK AO2 SLP172 T01590093
 10160 20090 58007 $=
PAEM 231756Z AUTO 17010KT 10SM OVC010 09/06 A3011 RMK AO2 SLP258 T00940061
 10094 20078 51006=
PAEN 231753Z 21006KT 10SM OVC060 10/07 A3013 RMK AO2 SLP205 T01000072 10100
 20083 58005=
PAFA 231753Z 20005KT 10SM FEW030 FEW065 SCT095 SCT250 17/09 A3002 RMK AO2
 SLP167 T01720094 10172 20100 58007 $=
PAFB 231758Z AUTO 25004KT 10SM M 16/09 A3002 RMK AO2 SLP168 T01620089 10162
 20096 58006 $=
PAFE 231756Z AUTO 18005KT 10SM BKN030 BKN036 14/08 A3013 RMK AO2 SLP215
 T01440078 10144 20089 58007=
PAFM 231756Z AUTO 26005KT 10SM BKN010 OVC016 11/09 A3007 RMK AO2 SLP196 60004
 T01110094 10111 20100 51009=
PAGA 231756Z AUTO 17003KT 10SM FEW045 OVC065 13/07 A3011 RMK AO2 SLP195
 T01280067 10133 20072 51004=
PAGK 231753Z AUTO 00000KT 10SM BKN070 OVC110 13/06 A3003 RMK AO2 SLP170
 T01280061 10139 20061 58012 TSNO=
PAGM 231756Z AUTO 15014KT 10SM BKN009 OVC033 07/06 A3001 RMK AO2 SLP168
 T00720056 10072 20061 53007=
PAGS 231756Z AUTO VRB04KT 10SM OVC049 13/07 A3012 RMK AO2 SLP199 T01280072
 10128 20083 58008=
PAGY 231753Z AUTO 20009KT 10SM OVC065 15/06 A3006 RMK AO2 SLP180 T01500056
 10150 20122 58006 TSNO=
PAHN 231754Z AUTO 13010KT 10SM OVC070 14/08 A3007 RMK AO2 SLP183 T01440083
 10150 20128 58007 TSNO=
PAHO 231753Z 16003KT 10SM OVC029 11/08 A3014 RMK AO2 SLP205 60000 T01110078
 10111 20094 58005=
PAHP 231756Z AUTO 18014KT 10SM BKN019 BKN026 OVC037 09/04 A3009 RMK AO2 SLP227
 T00890044 10089 20083 51002=
PAHY 231756Z AUTO 00000KT 10SM OVC030 12/07 A3013 RMK AO2 SLP304 T01220072
 10122 20094 56004 $=
PAII 231756Z AUTO 15004KT 10SM OVC041 10/07 A3013 RMK AO2 RAE01B26E40 SLP207
 P0000 60000 T01000067 10100 20072 50000=
PAIL 231753Z 00000KT 10SM BKN065 11/05 A3013 RMK AO2 SLP206 T01110050 10111
 20056 58004=
PAIM 231755Z AUTO 24010KT 210V270 10SM CLR 12/07 A3003 RMK AO2 SLP169 T01190066
 10112 20068 52004=
PAIN 231756Z AUTO 10SM OVC060 13/06 A3005 RMK AO2 SLP190 T01280061 10128 20083
 58008 $=
PAJC 231757Z AUTO 00000KT 10SM BKN032 OVC043 09/07 A3013 RMK AO2 RAB34E53
 SLP202 P0000 60000 T00940072 10094 20083 51002=
PAJN 231753Z 25005KT 10SM FEW040 BKN060 BKN180 15/07 A3008 RMK AO2 SLP187
 T01500067 10150 20094 58008=
PAKK 231756Z AUTO 07003KT 10SM FEW021 BKN032 OVC050 10/08 A3008 RMK AO2 SLP199
 6//// T01000083 10106 20072 51006 PNO $=
PAKN 231754Z 24006KT 10SM BKN042 11/07 A3009 RMK AO2 SLP188 60002 T01060072
 10111 20089 58002 $=
PAKP 231756Z AUTO 06009KT 10SM OVC028 08/05 A2994 RMK AO2 SLP169 60001
 T00780050 10078 20056 51008=
PAKT 231753Z 13014KT 10SM SCT028 OVC038 14/08 A3014 RMK AO2 SLP208 HARBOR WIND
 12017KT 60000 T01390083 10144 20122 55000=
PAKU 231745Z VRB02KT 10SM R06/P6000FT SCT160 05/M00 A3003=
PAKW 231753Z AUTO 23004KT 10SM BKN049 14/08 A3012 RMK AO2 SLP198 T01440083
 10150 20106 56005 TSNO=
PALH 231753Z VRB04KT 10SM OVC041 11/06 A3013 RMK AO2 SLP202 T01110061 10111
 20100 58005=
PALU 231755Z AUTO 22027KT 10SM -DZ FEW035 BKN060 09/06 A2997 RMK AO2 PK WND
 23034/1724 DZB1653E1734B1751RAB1734E1751 SLP150 P0000 60001 T00850063 10086
 20077 52009=
PAMC 231753Z 00000KT 10SM OVC070 13/08 A3009 RMK AO2 SLP193 T01280078 10128
 20083 50001=
PAMD 231751Z AUTO 27006KT 10SM OVC060 11/09 A3011 RMK AO2 SLP186 T01060089
 10106 20083 58009=
PAMM 231756Z AUTO 19008G14KT 10SM BKN030 OVC036 13/07 A3016 RMK AO2 SLP205
 60000 T01330067 10133 20122 53004=
PAMR 231753Z 24006KT 10SM FEW038 OVC048 11/07 A3011 RMK AO2 SLP198 T01110072
 10117 20100 58005=
PANC 231753Z 22007KT 10SM SCT030 BKN055 OVC140 11/07 A3011 RMK AO2 SLP198 60000
 T01110067 10111 20100 58005=
PANI 231756Z AUTO 00000KT 10SM BKN036 OVC043 11/08 A3012 RMK AO2 SLP169
 T01110078 10117 20083 50001=
PANN 231753Z AUTO 22006KT 10SM CLR 17/09 A3002 RMK AO2 SLP171 T01670094 10172
 20072 58005 TSNO $=
PAOH 231756Z AUTO 28004KT 10SM BKN046 OVC055 13/06 A3010 RMK AO2 SLP195
 T01330056 10139 20050 58009=
PAOM 231753Z 21005KT 10SM FEW020 BKN040 09/05 A3008 RMK AO2 SLP187 T00890050
 10094 20083 51007=
PAOR 231753Z VRB06KT 10SM FEW050 SCT065 OVC080 15/09 A2996 RMK AO2 RAB11E22
 SLP142 P0000 60001 T01500094 10150 20083 58010=
PAOT 231753Z 09006KT 10SM FEW012 BKN018 OVC026 10/08 A3006 RMK AO2 RAB15E47
 SLP178 P0001 60001 T01000078 10111 20094 51005=
PAPB 231753Z AUTO 18008KT 10SM SCT017 BKN024 OVC033 08/08 A2999 RMK AO2 SLP142
 T00780078 10078 20067 51005 TSNO=
PAPG 231756Z 09006KT 10SM BKN039 OVC050 14/09 A3012 RMK AO2 SLP202 T01390089
 10139 20111 58005=
PAPH 231756Z AUTO 15004KT 10SM -RA OVC035 09/07 A3012 RMK AO2 RAB01 SLP204
 P0001 60001 T00890067 10094 20067 50002=
PAPO 231756Z AUTO 18011KT 10SM FEW011 06/06 A3002 RMK AO2 SLP167 T00610056
 10061 20056 51005=
PAQT 231753Z AUTO 36003KT 10SM CLR 06/01 A3004 RMK AO2 SLP174 T00610006 10067
 20006 51006 TSNO=
PARC 231756Z AUTO 19010KT 10SM OVC018 11/08 A2980 RMK AO2 RAE31 SLP117 P0000
 60003 T01110083 10111 20100 50001=
PASA 231756Z AUTO 14005KT 10SM OVC031 08/04 A3003 RMK AO2 SLP172 T00780039
 10078 20044 51002=
PASC 231753Z 36004KT 10SM SCT160 BKN240 04/00 A3002 RMK AO2 SLP166 T00440000
 10044 20011 51009=
PASD 231756Z 00000KT 10SM BKN035 BKN048 08/03 A3014 RMK AO2 SLP207 6////
 T00830033 10083 20072 50002 PNO $=
PASI 231753Z 31005KT 10SM BKN060 13/08 A3010 RMK AO2 SLP192 T01280083 10133
 20094 56008=
PASK 231756Z AUTO 25013KT 10SM BKN015 OVC025 11/08 A3008 RMK AO2 RAE29 SLP184
 P0002 60008 T01110078 10117 20100 51008 $=
PASM 231802Z AUTO 21005KT 10SM OVC046 09/04 A3015 RMK AO2 SLP227 T00890044
 10089 20067 51006=
PASN 231753Z AUTO 15008KT 10SM BKN004 BKN008 OVC019 07/07 A2997 RMK AO2 CIG
 002V007 SLP149 T00670067 10067 20061 53005 TSNO=
PASO 231753Z AUTO 02005KT 10SM FEW027 BKN039 OVC055 10/07 A3013 RMK AO2 SLP204
 T01000067 10100 20078 58003 TSNO=
PASV 231755Z AUTO 00000KT 10SM FEW021 BKN055 09/06 A3010 RMK AO2 SLP193
 T00920062 10092 20066 57002=
PASX 231756Z AUTO 24005KT 10SM OVC065 11/06 A3015 RMK AO2 SLP218 T01110056
 10111 20061 58007=
PASY 231758Z AUTO 09022G28KT 5SM BR OVC003 06/06 A2961 RMK AO2 PK WND 08031/28
 RAB05E10 SLP030 P0000 60014 T00620058 10062 20056 57030 $=
PATA 231752Z 17003KT 10SM OVC003 11/11 A3005 RMK AO2 SLP180 T01110111 10117
 20072 51002=
PATC 231755Z AUTO 21012KT 10SM OVC022 06/06 A3006 RMK AO2 SLP181 T00640057
 10083 20065 52012 $=
PATK 231753Z VRB03KT 10SM FEW030 BKN090 12/07 A3009 RMK AO2 SLP192 T01220067
 10128 20072 58009=
PATL 231755Z AUTO 00000KT 10SM BKN080 12/07 A3012 RMK AO2 SLP199 T01160065
 10113 20083 52002=
PATO 231753Z AUTO 28006KT 10SM BKN032 OVC050 11/07 A3011 RMK AO2 SLP196
 T01110067 10111 20067 58007 TSNO=
PAUN 231756Z AUTO 20004KT 10SM FEW025 11/08 A3013 RMK AO2 SLP207 60000
 T01110078 10111 20056 51005=
PAVD 231756Z 24003KT 8SM SCT013 BKN030 BKN037 11/08 A3009 RMK AO2 SLP215 60002
 T01060078 10106 20078 58010=
PAWD 231753Z AUTO 36005KT 10SM OVC060 12/08 A3009 RMK AO2 RAE1658 SLP191 P0000
 60000 T01170083 10117 20083 58011 TSNO=
PAWG 231756Z 32003KT 10SM SCT035 OVC045 13/09 A3013 RMK (KB)=
PAWI 231753Z AUTO 08007KT 10SM CLR 06/02 A2998 RMK AO2 SLP153 T00610017 10061
 20006 53002 TSNO=
PAWN 231756Z AUTO 21003KT 10SM -RA FEW007 BKN032 OVC045 08/07 A3008 RMK AO2
 SLP200 P0002 60014 T00830072 10083 20072 51008 $=
PAWS 231756Z AUTO 00000KT 10SM SCT012 OVC034 10/08 A3012 RMK AO2 SLP217
 T01000083 10100 20083 58005=
PAYA 231753Z AUTO 00000KT 10SM OVC046 12/09 A3010 RMK AO2 RAE1656 SLP193 P0000
 60000 T01220089 10122 20100 58007 TSNO=
PAZK 231756Z AUTO 20005KT 10SM SCT006 BKN024 BKN050 08/06 A3003 RMK AO2 SLP194
 60002 T00780056 10078 20050 56006=